createdAt,value
2022-11-09T00:00:42.901Z,7.72
2022-11-09T00:03:09.982Z,7.60
2022-11-09T00:05:36.626Z,7.90
2022-11-09T00:08:11.158Z,7.43
2022-11-09T00:10:38.568Z,8.02
2022-11-09T00:13:05.854Z,7.93
2022-11-09T00:15:32.779Z,9.18
2022-11-09T00:18:03.318Z,9.02
2022-11-09T00:20:30.425Z,8.52
2022-11-09T00:22:57.450Z,8.00
2022-11-09T00:25:24.140Z,9.15
2022-11-09T00:27:51.169Z,8.93
2022-11-09T00:30:18.213Z,8.57
2022-11-09T00:32:45.141Z,7.93
2022-11-09T00:35:12.033Z,9.38
2022-11-09T00:37:38.851Z,8.52
2022-11-09T00:40:06.212Z,8.00
2022-11-09T00:42:33.088Z,9.18
2022-11-09T00:45:00.105Z,10.20
2022-11-09T00:47:27.193Z,8.70
2022-11-09T00:49:54.385Z,9.55
2022-11-09T00:52:21.268Z,8.27
2022-11-09T00:54:48.122Z,8.02
2022-11-09T00:57:15.021Z,8.70
2022-11-09T00:59:41.849Z,8.77
2022-11-09T01:02:09.231Z,8.70
2022-11-09T01:04:36.371Z,9.20
2022-11-09T01:07:03.414Z,8.60
2022-11-09T01:09:30.419Z,7.90
2022-11-09T01:11:57.289Z,9.20
2022-11-09T01:14:24.138Z,7.65
2022-11-09T01:16:52.705Z,8.40
2022-11-09T01:19:19.729Z,8.68
2022-11-09T01:21:46.694Z,8.68
2022-11-09T01:24:13.484Z,9.32
2022-11-09T01:26:42.436Z,9.77
2022-11-09T01:29:09.353Z,9.07
2022-11-09T01:31:36.700Z,9.30
2022-11-09T01:34:03.578Z,9.25
2022-11-09T01:36:30.422Z,9.18
2022-11-09T01:38:57.358Z,9.10
2022-11-09T01:41:27.290Z,10.13
2022-11-09T01:44:15.714Z,9.35
2022-11-09T01:47:01.478Z,8.70
2022-11-09T01:49:37.941Z,9.20
2022-11-09T01:52:10.666Z,8.88
2022-11-09T01:54:41.375Z,8.95
2022-11-09T01:57:13.989Z,8.98
2022-11-09T01:59:46.691Z,9.35
2022-11-09T02:02:13.797Z,9.23
2022-11-09T02:04:47.698Z,9.65
2022-11-09T02:07:15.038Z,9.25
2022-11-09T02:09:47.884Z,9.05
2022-11-09T02:12:17.681Z,9.05
2022-11-09T02:14:45.508Z,9.95
2022-11-09T02:17:12.773Z,9.65
2022-11-09T02:19:39.712Z,10.65
2022-11-09T02:22:06.587Z,9.93
2022-11-09T02:24:34.273Z,8.82
2022-11-09T02:27:01.195Z,9.65
2022-11-09T02:29:34.585Z,10.57
2022-11-09T02:32:07.419Z,9.43
2022-11-09T02:34:34.360Z,9.27
2022-11-09T02:37:01.149Z,9.57
2022-11-09T02:39:29.094Z,8.93
2022-11-09T02:42:10.650Z,9.57
2022-11-09T02:44:48.143Z,9.98
2022-11-09T02:47:15.394Z,9.02
2022-11-09T02:49:42.633Z,10.00
2022-11-09T02:52:09.565Z,9.85
2022-11-09T02:54:36.480Z,9.98
2022-11-09T02:57:03.565Z,10.15
2022-11-09T02:59:30.331Z,10.55
2022-11-09T03:01:57.182Z,10.05
2022-11-09T03:04:24.088Z,9.55
2022-11-09T03:06:51.009Z,10.35
2022-11-09T03:09:17.921Z,10.18
2022-11-09T03:11:45.193Z,11.98
2022-11-09T03:14:12.273Z,10.15
2022-11-09T03:16:40.118Z,9.55
2022-11-09T03:19:07.631Z,10.10
2022-11-09T03:21:34.982Z,10.30
2022-11-09T03:24:02.501Z,11.07
2022-11-09T03:26:29.698Z,10.85
2022-11-09T03:28:56.339Z,10.88
2022-11-09T03:31:22.989Z,10.93
2022-11-09T03:33:49.860Z,10.05
2022-11-09T03:36:16.741Z,10.55
2022-11-09T03:38:43.681Z,11.35
2022-11-09T03:41:10.347Z,11.80
2022-11-09T03:43:37.201Z,11.07
2022-11-09T03:46:04.128Z,10.55
2022-11-09T03:48:31.098Z,11.18
2022-11-09T03:51:00.446Z,11.32
2022-11-09T03:53:27.272Z,10.65
2022-11-09T03:55:54.191Z,11.70
2022-11-09T03:58:21.150Z,11.35
2022-11-09T04:00:47.857Z,10.38
2022-11-09T04:03:15.009Z,11.70
2022-11-09T04:05:41.894Z,11.38
2022-11-09T04:08:09.313Z,9.90
2022-11-09T04:10:35.993Z,11.02
2022-11-09T04:13:02.769Z,11.00
2022-11-09T04:15:30.242Z,10.45
2022-11-09T04:18:02.374Z,10.27
2022-11-09T04:20:31.246Z,10.10
2022-11-09T04:23:04.750Z,9.85
2022-11-09T04:25:36.992Z,11.07
2022-11-09T04:28:05.631Z,10.38
2022-11-09T04:30:35.037Z,9.52
2022-11-09T04:33:03.091Z,9.25
2022-11-09T04:35:32.171Z,9.00
2022-11-09T04:38:04.428Z,9.90
2022-11-09T04:40:33.888Z,9.13
2022-11-09T04:43:01.498Z,9.10
2022-11-09T04:45:28.464Z,10.57
2022-11-09T04:48:02.958Z,8.73
2022-11-09T04:50:30.558Z,8.43
2022-11-09T04:53:12.231Z,8.82
2022-11-09T04:55:40.007Z,9.15
2022-11-09T04:58:07.320Z,9.35
2022-11-09T05:00:35.002Z,8.63
2022-11-09T05:03:06.334Z,8.80
2022-11-09T05:05:34.945Z,9.02
2022-11-09T05:08:02.437Z,8.55
2022-11-09T05:10:29.782Z,9.00
2022-11-09T05:13:06.146Z,8.30
2022-11-09T05:15:34.460Z,8.23
2022-11-09T05:18:04.599Z,7.97
2022-11-09T05:20:31.796Z,8.63
2022-11-09T05:23:18.973Z,7.50
2022-11-09T05:25:46.749Z,7.78
2022-11-09T05:28:14.043Z,8.27
2022-11-09T05:30:40.901Z,7.38
2022-11-09T05:33:07.894Z,8.18
2022-11-09T05:35:34.816Z,8.48
2022-11-09T05:38:01.550Z,8.60
2022-11-09T05:40:28.476Z,7.72
2022-11-09T05:42:56.850Z,8.05
2022-11-09T05:45:42.108Z,7.65
2022-11-09T05:48:15.475Z,8.05
2022-11-09T05:50:42.946Z,7.38
2022-11-09T05:53:11.180Z,8.70
2022-11-09T05:55:38.536Z,8.60
2022-11-09T05:58:05.811Z,7.82
2022-11-09T06:00:32.837Z,8.20
2022-11-09T06:03:08.037Z,7.00
2022-11-09T06:08:07.437Z,8.38
2022-11-09T06:10:34.495Z,8.48
2022-11-09T06:13:02.149Z,7.35
2022-11-09T06:15:29.013Z,7.65
2022-11-09T06:17:56.982Z,7.97
2022-11-09T06:20:24.833Z,9.18
2022-11-09T06:22:58.642Z,7.93
2022-11-09T06:25:28.778Z,8.07
2022-11-09T06:27:55.912Z,8.50
2022-11-09T06:30:23.070Z,8.98
2022-11-09T06:32:51.228Z,8.40
2022-11-09T06:35:18.160Z,8.80
2022-11-09T06:37:44.812Z,9.23
2022-11-09T06:40:12.837Z,10.45
2022-11-09T06:42:39.715Z,8.15
2022-11-09T06:45:07.117Z,9.52
2022-11-09T06:47:33.899Z,9.13
2022-11-09T06:50:00.557Z,9.10
2022-11-09T06:52:27.356Z,9.00
2022-11-09T06:54:54.356Z,8.98
2022-11-09T06:57:21.222Z,10.05
2022-11-09T06:59:47.974Z,9.38
2022-11-09T07:02:20.037Z,10.13
2022-11-09T07:04:46.751Z,8.77
2022-11-09T07:07:13.594Z,8.90
2022-11-09T07:09:40.491Z,7.95
2022-11-09T07:12:07.281Z,8.18
2022-11-09T07:14:34.140Z,8.93
2022-11-09T07:17:01.276Z,7.88
2022-11-09T07:19:31.479Z,8.43
2022-11-09T07:21:58.094Z,7.45
2022-11-09T07:24:25.009Z,7.32
2022-11-09T07:26:51.657Z,9.52
2022-11-09T07:29:18.530Z,7.20
2022-11-09T07:31:45.263Z,8.38
2022-11-09T07:34:12.138Z,8.07
2022-11-09T07:36:39.182Z,8.40
2022-11-09T07:39:06.178Z,8.40
2022-11-09T07:41:34.913Z,8.30
2022-11-09T07:44:02.645Z,7.32
2022-11-09T07:46:29.400Z,7.70
2022-11-09T07:48:56.396Z,7.30
2022-11-09T07:51:23.275Z,7.25
2022-11-09T07:53:50.142Z,7.45
2022-11-09T07:56:17.071Z,7.78
2022-11-09T07:58:43.882Z,7.28
2022-11-09T08:01:11.377Z,6.85
2022-11-09T08:03:38.181Z,7.13
2022-11-09T08:06:05.075Z,6.50
2022-11-09T08:08:31.994Z,6.95
2022-11-09T08:10:59.050Z,6.72
2022-11-09T08:13:26.393Z,6.20
2022-11-09T08:15:53.210Z,7.63
2022-11-09T08:18:21.860Z,6.63
2022-11-09T08:20:49.655Z,5.75
2022-11-09T08:23:18.729Z,5.15
2022-11-09T08:25:45.546Z,4.50
2022-11-09T08:28:16.067Z,4.38
2022-11-09T08:30:44.612Z,5.00
2022-11-09T08:33:12.343Z,5.35
2022-11-09T08:35:39.364Z,4.68
2022-11-09T08:38:06.410Z,5.20
2022-11-09T08:40:33.685Z,5.60
2022-11-09T08:43:06.955Z,5.15
2022-11-09T08:45:35.664Z,5.32
2022-11-09T08:48:04.138Z,5.22
2022-11-09T08:50:34.671Z,5.55
2022-11-09T08:53:02.278Z,5.18
2022-11-09T08:55:29.586Z,4.10
2022-11-09T08:57:58.411Z,4.30
2022-11-09T09:00:25.733Z,4.85
2022-11-09T09:02:53.054Z,4.18
2022-11-09T09:05:19.947Z,4.40
2022-11-09T09:07:46.753Z,5.13
2022-11-09T09:10:13.690Z,6.50
2022-11-09T09:12:40.342Z,4.85
2022-11-09T09:15:07.650Z,5.40
2022-11-09T09:17:35.762Z,5.32
2022-11-09T09:20:02.704Z,5.30
2022-11-09T09:22:32.414Z,5.38
2022-11-09T09:24:59.594Z,5.10
2022-11-09T09:27:27.043Z,6.13
2022-11-09T09:29:54.243Z,5.80
2022-11-09T09:32:21.324Z,5.07
2022-11-09T09:34:48.254Z,5.30
2022-11-09T09:37:16.734Z,5.45
2022-11-09T09:39:43.682Z,6.63
2022-11-09T09:42:20.384Z,5.55
2022-11-09T09:44:54.167Z,6.13
2022-11-09T09:47:35.954Z,5.68
2022-11-09T09:50:15.598Z,5.25
2022-11-09T09:53:23.349Z,5.68
2022-11-09T09:55:56.306Z,5.18
2022-11-09T09:58:28.076Z,5.00
2022-11-09T10:01:06.157Z,5.72
2022-11-09T10:03:33.064Z,4.53
2022-11-09T10:06:37.837Z,3.85
2022-11-09T10:09:10.573Z,3.90
2022-11-09T10:12:05.302Z,3.58
2022-11-09T10:14:46.483Z,3.55
2022-11-09T10:17:39.123Z,3.40
2022-11-09T10:20:24.097Z,4.20
2022-11-09T10:23:08.925Z,3.63
2022-11-09T10:28:42.618Z,3.75
2022-11-09T10:31:22.494Z,3.65
2022-11-09T10:34:00.368Z,3.50
2022-11-09T10:36:33.223Z,3.85
2022-11-09T10:39:01.768Z,3.83
2022-11-09T10:41:34.674Z,4.53
2022-11-09T10:44:01.552Z,3.90
2022-11-09T10:46:28.567Z,4.50
2022-11-09T10:48:55.949Z,4.30
2022-11-09T10:51:41.570Z,3.67
2022-11-09T10:57:06.393Z,4.15
2022-11-09T10:59:39.533Z,4.03
2022-11-09T11:02:24.487Z,3.92
2022-11-09T11:05:12.879Z,3.70
2022-11-09T11:07:39.720Z,4.53
2022-11-09T11:10:15.802Z,3.85
2022-11-09T11:13:05.571Z,4.15
2022-11-09T11:15:39.874Z,3.47
2022-11-09T11:18:23.220Z,3.70
2022-11-09T11:21:07.573Z,3.60
2022-11-09T11:23:37.110Z,3.20
2022-11-09T11:26:16.747Z,3.40
2022-11-09T11:29:05.164Z,3.78
2022-11-09T11:31:32.775Z,3.03
2022-11-09T11:33:59.624Z,3.47
2022-11-09T11:36:53.141Z,3.22
2022-11-09T11:40:08.066Z,3.20
2022-11-09T11:42:49.865Z,2.85
2022-11-09T11:45:40.202Z,2.88
2022-11-09T11:48:16.503Z,2.97
2022-11-09T11:50:48.930Z,3.03
2022-11-09T11:53:53.518Z,3.45
2022-11-09T11:56:43.420Z,3.15
2022-11-09T11:59:42.065Z,3.38
2022-11-09T12:02:14.869Z,3.05
2022-11-09T12:04:50.802Z,2.97
2022-11-09T12:07:31.517Z,3.63
2022-11-09T12:10:00.903Z,2.90
2022-11-09T12:12:43.692Z,3.15
2022-11-09T12:15:42.805Z,4.00
2022-11-09T12:18:09.437Z,3.30
2022-11-09T12:20:52.393Z,2.63
2022-11-09T12:23:35.172Z,2.97
2022-11-09T12:26:13.402Z,3.33
2022-11-09T12:29:00.100Z,3.53
2022-11-09T12:32:04.101Z,3.17
2022-11-09T12:34:40.724Z,3.47
2022-11-09T12:37:16.424Z,3.15
2022-11-09T12:39:53.923Z,3.63
2022-11-09T12:42:30.502Z,3.20
2022-11-09T12:45:07.291Z,3.03
2022-11-09T12:47:41.582Z,2.80
2022-11-09T12:50:16.216Z,3.20
2022-11-09T12:52:45.277Z,2.80
2022-11-09T12:55:18.251Z,2.55
2022-11-09T12:57:48.238Z,2.78
2022-11-09T13:00:46.178Z,2.85
2022-11-09T13:03:23.324Z,2.25
2022-11-09T13:06:14.171Z,2.97
2022-11-09T13:08:43.357Z,2.55
2022-11-09T13:11:38.086Z,2.72
2022-11-09T13:14:23.096Z,2.55
2022-11-09T13:16:51.217Z,2.70
2022-11-09T13:19:37.739Z,3.35
2022-11-09T13:22:13.670Z,2.70
2022-11-09T13:25:00.265Z,3.15
2022-11-09T13:27:33.002Z,3.85
2022-11-09T13:30:01.247Z,2.53
2022-11-09T13:32:30.499Z,3.15
2022-11-09T13:35:02.160Z,3.40
2022-11-09T13:37:41.134Z,3.33
2022-11-09T13:40:33.032Z,2.45
2022-11-09T13:43:08.903Z,2.85
2022-11-09T13:46:04.042Z,3.65
2022-11-09T13:48:39.625Z,3.03
2022-11-09T13:51:10.648Z,3.05
2022-11-09T13:53:37.394Z,2.85
2022-11-09T13:56:41.020Z,2.95
2022-11-09T13:59:17.372Z,3.03
2022-11-09T14:01:59.085Z,3.13
2022-11-09T14:04:36.250Z,2.97
2022-11-09T14:07:23.724Z,3.13
2022-11-09T14:10:13.885Z,3.22
2022-11-09T14:12:42.213Z,3.80
2022-11-09T14:15:27.734Z,3.00
2022-11-09T14:18:19.653Z,3.80
2022-11-09T14:21:17.428Z,2.92
2022-11-09T14:23:44.441Z,3.40
2022-11-09T14:26:22.105Z,3.22
2022-11-09T14:28:49.055Z,3.50
2022-11-09T14:31:31.051Z,3.03
2022-11-09T14:34:02.918Z,3.25
2022-11-09T14:36:31.531Z,3.08
2022-11-09T14:39:01.442Z,3.33
2022-11-09T14:41:28.494Z,3.05
2022-11-09T14:43:58.722Z,3.03
2022-11-09T14:46:28.560Z,3.45
2022-11-09T14:48:58.944Z,5.38
2022-11-09T14:51:32.254Z,3.63
2022-11-09T14:54:01.847Z,3.13
2022-11-09T14:56:30.757Z,2.95
2022-11-09T14:58:58.149Z,3.55
2022-11-09T15:01:27.337Z,3.35
2022-11-09T15:04:23.066Z,3.70
2022-11-09T15:06:54.115Z,3.05
2022-11-09T15:09:29.904Z,3.92
2022-11-09T15:11:56.886Z,2.88
2022-11-09T15:14:31.010Z,3.53
2022-11-09T15:17:22.180Z,3.67
2022-11-09T15:19:59.659Z,3.40
2022-11-09T15:22:50.418Z,3.90
2022-11-09T15:25:43.737Z,3.60
2022-11-09T15:28:13.324Z,5.10
2022-11-09T15:30:45.863Z,3.33
2022-11-09T15:33:21.655Z,3.80
2022-11-09T15:36:00.125Z,3.67
2022-11-09T15:38:42.694Z,4.25
2022-11-09T15:41:16.229Z,3.85
2022-11-09T15:43:44.164Z,3.65
2022-11-09T15:46:17.733Z,3.65
2022-11-09T15:48:47.795Z,3.90
2022-11-09T15:51:15.172Z,4.50
2022-11-09T15:53:42.959Z,4.93
2022-11-09T15:56:17.649Z,4.25
2022-11-09T15:58:47.076Z,4.10
2022-11-09T16:01:13.830Z,3.78
2022-11-09T16:03:40.769Z,3.45
2022-11-09T16:06:11.026Z,3.70
2022-11-09T16:08:37.948Z,4.28
2022-11-09T16:11:06.634Z,4.15
2022-11-09T16:13:33.665Z,4.50
2022-11-09T16:16:05.486Z,5.10
2022-11-09T16:18:33.189Z,5.53
2022-11-09T16:21:17.152Z,4.47
2022-11-09T16:23:43.949Z,3.97
2022-11-09T16:26:20.191Z,5.53
2022-11-09T16:28:47.236Z,5.13
2022-11-09T16:31:14.055Z,4.20
2022-11-09T16:33:41.140Z,4.22
2022-11-09T16:36:19.157Z,4.22
2022-11-09T16:38:52.834Z,4.00
2022-11-09T16:41:20.986Z,4.22
2022-11-09T16:43:50.549Z,4.10
2022-11-09T16:46:26.576Z,4.28
2022-11-09T16:48:56.372Z,3.65
2022-11-09T16:51:23.259Z,4.80
2022-11-09T16:53:50.261Z,4.50
2022-11-09T16:56:17.220Z,4.72
2022-11-09T16:58:44.476Z,4.00
2022-11-09T17:01:13.046Z,3.58
2022-11-09T17:03:41.543Z,4.38
2022-11-09T17:06:11.335Z,4.47
2022-11-09T17:08:41.999Z,3.92
2022-11-09T17:11:11.011Z,3.55
2022-11-09T17:13:38.117Z,4.10
2022-11-09T17:16:11.011Z,3.38
2022-11-09T17:18:38.852Z,4.10
2022-11-09T17:21:15.105Z,3.70
2022-11-09T17:23:43.278Z,3.95
2022-11-09T17:26:11.185Z,4.10
2022-11-09T17:28:42.637Z,4.50
2022-11-09T17:31:15.582Z,3.78
2022-11-09T17:33:42.799Z,3.85
2022-11-09T17:36:14.218Z,3.80
2022-11-09T17:38:41.198Z,3.95
2022-11-09T17:41:19.782Z,3.90
2022-11-09T17:43:47.292Z,4.15
2022-11-09T17:46:14.064Z,4.10
2022-11-09T17:48:43.210Z,4.53
2022-11-09T17:51:10.785Z,4.32
2022-11-09T17:53:38.077Z,4.03
2022-11-09T17:56:05.697Z,4.65
2022-11-09T17:58:32.545Z,5.30
2022-11-09T18:01:14.291Z,4.55
2022-11-09T18:03:41.558Z,5.10
2022-11-09T18:06:21.953Z,5.25
2022-11-09T18:09:10.718Z,4.82
2022-11-09T18:11:35.993Z,4.75
2022-11-09T18:14:03.637Z,5.15
2022-11-09T18:16:30.681Z,5.88
2022-11-09T18:19:01.849Z,5.72
2022-11-09T18:21:30.334Z,6.53
2022-11-09T18:23:57.305Z,5.25
2022-11-09T18:26:24.657Z,5.03
2022-11-09T18:28:51.668Z,4.90
2022-11-09T18:31:18.471Z,4.82
2022-11-09T18:33:45.598Z,5.20
2022-11-09T18:36:15.749Z,5.45
2022-11-09T18:38:43.777Z,5.38
2022-11-09T18:41:19.798Z,4.85
2022-11-09T18:43:46.957Z,5.47
2022-11-09T18:46:15.627Z,4.88
2022-11-09T18:48:43.203Z,4.93
2022-11-09T18:51:11.058Z,6.22
2022-11-09T18:53:43.129Z,5.88
2022-11-09T18:56:21.796Z,5.15
2022-11-09T18:58:50.623Z,5.13
2022-11-09T19:01:17.494Z,6.53
2022-11-09T19:03:44.774Z,6.07
2022-11-09T19:06:14.333Z,5.43
2022-11-09T19:08:59.987Z,5.25
2022-11-09T19:11:27.182Z,7.10
2022-11-09T19:13:54.773Z,5.78
2022-11-09T19:16:22.856Z,6.55
2022-11-09T19:18:49.958Z,6.15
2022-11-09T19:21:43.399Z,5.63
2022-11-09T19:24:14.945Z,5.70
2022-11-09T19:26:42.126Z,6.72
2022-11-09T19:29:10.740Z,6.22
2022-11-09T19:31:41.710Z,5.95
2022-11-09T19:34:09.241Z,6.78
2022-11-09T19:36:36.118Z,6.05
2022-11-09T19:39:02.855Z,6.03
2022-11-09T19:41:29.866Z,6.40
2022-11-09T19:44:01.278Z,5.35
2022-11-09T19:46:33.417Z,5.78
2022-11-09T19:49:01.053Z,6.78
2022-11-09T19:51:31.273Z,5.93
2022-11-09T19:53:59.774Z,6.20
2022-11-09T19:56:29.865Z,8.15
2022-11-09T19:58:58.995Z,6.03
2022-11-09T20:01:28.274Z,5.50
2022-11-09T20:03:57.788Z,5.72
2022-11-09T20:06:26.050Z,6.78
2022-11-09T20:08:53.984Z,6.50
2022-11-09T20:11:41.987Z,6.63
2022-11-09T20:14:10.441Z,7.85
2022-11-09T20:16:39.208Z,7.93
2022-11-09T20:19:09.435Z,6.63
2022-11-09T20:21:37.362Z,6.63
2022-11-09T20:24:04.430Z,7.40
2022-11-09T20:26:31.188Z,6.65
2022-11-09T20:28:57.948Z,7.70
2022-11-09T20:31:24.984Z,6.68
2022-11-09T20:33:52.670Z,7.07
2022-11-09T20:36:20.138Z,7.85
2022-11-09T20:38:47.507Z,7.00
2022-11-09T20:41:14.403Z,7.60
2022-11-09T20:43:41.685Z,7.40
2022-11-09T20:46:20.957Z,7.38
2022-11-09T20:48:55.893Z,8.27
2022-11-09T20:53:51.475Z,8.18
2022-11-09T20:56:19.787Z,8.80
2022-11-09T20:58:47.393Z,7.63
2022-11-09T21:01:25.185Z,8.90
2022-11-09T21:03:53.161Z,7.82
2022-11-09T21:06:21.681Z,7.18
2022-11-09T21:08:51.215Z,7.18
2022-11-09T21:11:18.970Z,8.45
2022-11-09T21:13:50.132Z,7.75
2022-11-09T21:16:18.643Z,8.70
2022-11-09T21:18:45.455Z,8.18
2022-11-09T21:21:20.389Z,9.18
2022-11-09T21:24:06.409Z,8.85
2022-11-09T21:26:52.053Z,8.60
2022-11-09T21:29:40.068Z,8.45
2022-11-09T21:32:07.787Z,9.85
2022-11-09T21:34:37.158Z,10.00
2022-11-09T21:37:05.350Z,9.93
2022-11-09T21:39:33.032Z,9.77
2022-11-09T21:42:01.609Z,11.00
2022-11-09T21:44:30.365Z,10.40
2022-11-09T21:46:58.219Z,10.13
2022-11-09T21:49:25.219Z,10.38
2022-11-09T21:51:52.902Z,10.30
2022-11-09T21:54:19.795Z,10.35
2022-11-09T21:56:51.752Z,9.88
2022-11-09T21:59:18.737Z,10.05
2022-11-09T22:01:45.781Z,8.95
2022-11-09T22:04:12.882Z,9.75
2022-11-09T22:06:41.938Z,11.02
2022-11-09T22:09:16.891Z,9.88
2022-11-09T22:12:02.217Z,8.77
2022-11-09T22:14:47.574Z,8.95
2022-11-09T22:17:15.096Z,9.48
2022-11-09T22:20:00.662Z,9.07
2022-11-09T22:24:54.664Z,9.07
2022-11-09T22:27:21.579Z,9.23
2022-11-09T22:29:48.619Z,10.05
2022-11-09T22:32:15.410Z,10.48
2022-11-09T22:34:42.329Z,9.50
2022-11-09T22:37:09.220Z,11.05
2022-11-09T22:39:35.958Z,9.90
2022-11-09T22:42:07.478Z,9.75
2022-11-09T22:44:34.106Z,10.65
2022-11-09T22:47:00.878Z,9.95
2022-11-09T22:49:27.555Z,10.73
2022-11-09T22:51:54.478Z,10.30
2022-11-09T22:54:22.442Z,9.48
2022-11-09T22:56:49.247Z,9.82
2022-11-09T22:59:15.897Z,9.75
2022-11-09T23:01:42.807Z,9.40
2022-11-09T23:04:10.714Z,9.45
2022-11-09T23:06:37.700Z,9.25
2022-11-09T23:09:06.689Z,9.05
2022-11-09T23:11:33.589Z,9.43
2022-11-09T23:14:00.441Z,9.05
2022-11-09T23:16:27.472Z,9.43
2022-11-09T23:18:54.973Z,8.80
2022-11-09T23:21:27.229Z,8.93
2022-11-09T23:23:57.216Z,8.60
2022-11-09T23:26:25.691Z,8.98
2022-11-09T23:28:53.018Z,8.25
2022-11-09T23:31:24.362Z,8.27
2022-11-09T23:33:54.531Z,8.52
2022-11-09T23:36:23.086Z,8.25
2022-11-09T23:38:50.049Z,8.20
2022-11-09T23:41:17.503Z,7.50
2022-11-09T23:43:48.949Z,8.13
2022-11-09T23:46:17.708Z,8.13
2022-11-09T23:48:52.430Z,7.63
2022-11-09T23:51:19.165Z,8.07
2022-11-09T23:53:45.988Z,6.90
2022-11-09T23:56:12.849Z,7.68
2022-11-09T23:58:39.583Z,6.93
